CheckWX is a tool to help pilots better visualize weather data.  It is not intended as a substitute for an official pre-flight weather briefing.

01:41:51 UTC

KRWL METAR
Rawlins Municipal / Harvey Field Airport
Rawlins, Wyoming, USA
Current

49 mins ago

KRWL 100053Z AUTO 25018KT 10SM CLR M06/M10 A3001 RMK AO2 SLP202 T10561100
Observed
Dec-10 @ 00:53 UTC
Wind
  • 250° at 18 KTS
Visibility
10 SM
Flight Rules
VFR
Cloud Levels
  • Clear skies
Temperature
-6°C / 21°F
Dewpoint
-10°C / 14°F
Humidity
74%
Altimeter
30.01" Hg
Pressure
1016.22 hPa
Previous

2 hours ago

KRWL 092353Z AUTO 25014KT 10SM CLR M05/M11 A3000 RMK AO2 SLP194 T10501106 11033 21050 53006
Observed
Dec-9 @ 23:53 UTC
Wind
  • 250° at 14 KTS
Visibility
10 SM
Flight Rules
VFR
Cloud Levels
  • Clear skies
Temperature
-5°C / 23°F
Dewpoint
-11°C / 12°F
Humidity
63%
Altimeter
30" Hg
Pressure
1015.92 hPa
Previous

3 hours ago

KRWL 092253Z AUTO 26013KT 10SM CLR M04/M10 A2999 RMK AO2 SLP187 T10441100
Observed
Dec-9 @ 22:53 UTC
Wind
  • 260° at 13 KTS
Visibility
10 SM
Flight Rules
VFR
Cloud Levels
  • Clear skies
Temperature
-4°C / 25°F
Dewpoint
-10°C / 14°F
Humidity
63%
Altimeter
29.99" Hg
Pressure
1015.62 hPa